createdAt,value
2023-05-22T00:01:38.196Z,2.57
2023-05-22T00:06:46.502Z,2.40
2023-05-22T00:11:52.880Z,2.50
2023-05-22T00:17:00.435Z,2.43
2023-05-22T00:22:07.485Z,2.40
2023-05-22T00:27:13.279Z,2.70
2023-05-22T00:32:18.817Z,2.70
2023-05-22T00:37:25.728Z,2.27
2023-05-22T00:42:31.487Z,2.30
2023-05-22T00:47:37.281Z,2.87
2023-05-22T00:52:45.951Z,2.40
2023-05-22T00:57:52.571Z,2.40
2023-05-22T01:02:58.196Z,2.73
2023-05-22T01:08:06.211Z,2.47
2023-05-22T01:13:30.309Z,2.53
2023-05-22T01:18:55.247Z,2.77
2023-05-22T01:24:14.085Z,2.83
2023-05-22T01:29:46.659Z,2.50
2023-05-22T01:34:55.310Z,2.70
2023-05-22T01:40:01.617Z,2.53
2023-05-22T01:45:09.466Z,3.07
2023-05-22T01:50:16.542Z,2.80
2023-05-22T01:55:29.481Z,3.00
2023-05-22T02:00:37.722Z,2.23
2023-05-22T02:05:45.101Z,3.13
2023-05-22T02:10:53.012Z,2.90
2023-05-22T02:16:00.446Z,2.80
2023-05-22T02:26:14.094Z,2.70
2023-05-22T02:31:19.786Z,3.03
2023-05-22T02:36:26.383Z,2.80
2023-05-22T02:41:32.017Z,3.03
2023-05-22T02:46:37.714Z,3.10
2023-05-22T02:51:44.991Z,2.97
2023-05-22T02:56:50.864Z,3.17
2023-05-22T03:01:56.747Z,2.80
2023-05-22T03:07:03.012Z,3.17
2023-05-22T03:12:10.053Z,3.60
2023-05-22T03:17:15.676Z,3.03
2023-05-22T03:22:21.757Z,3.23
2023-05-22T03:27:27.626Z,3.37
2023-05-22T03:32:35.811Z,3.20
2023-05-22T03:37:42.960Z,3.30
2023-05-22T03:42:49.668Z,3.50
2023-05-22T03:47:55.956Z,3.43
2023-05-22T03:53:02.223Z,2.90
2023-05-22T03:58:08.944Z,3.20
2023-05-22T04:03:14.598Z,3.27
2023-05-22T04:08:22.180Z,3.10
2023-05-22T04:13:28.397Z,3.43
2023-05-22T04:18:34.025Z,3.37
2023-05-22T04:23:41.339Z,3.63
2023-05-22T04:28:47.412Z,3.30
2023-05-22T04:33:54.725Z,3.13
2023-05-22T04:39:00.598Z,3.80
2023-05-22T04:44:06.253Z,3.37
2023-05-22T04:49:11.832Z,3.40
2023-05-22T04:54:17.600Z,3.60
2023-05-22T04:59:23.469Z,3.27
2023-05-22T05:04:29.123Z,3.47
2023-05-22T05:09:35.197Z,3.90
2023-05-22T05:14:40.869Z,3.53
2023-05-22T05:19:46.541Z,3.70
2023-05-22T05:24:52.321Z,3.57
2023-05-22T05:29:58.096Z,4.20
2023-05-22T05:35:05.660Z,3.90
2023-05-22T05:40:25.449Z,3.80
2023-05-22T05:45:31.991Z,3.70
2023-05-22T05:50:38.088Z,3.80
2023-05-22T05:55:44.255Z,3.83
2023-05-22T06:00:50.626Z,3.90
2023-05-22T06:05:57.773Z,3.90
2023-05-22T06:11:14.148Z,3.60
2023-05-22T06:16:21.502Z,3.50
2023-05-22T06:21:27.515Z,3.60
2023-05-22T06:26:34.008Z,2.97
2023-05-22T06:31:39.903Z,3.73
2023-05-22T06:36:46.131Z,3.40
2023-05-22T06:41:53.067Z,3.50
2023-05-22T06:46:59.530Z,3.50
2023-05-22T06:52:05.582Z,3.50
2023-05-22T06:57:11.999Z,3.33
2023-05-22T07:02:17.771Z,3.50
2023-05-22T07:07:28.174Z,2.90
2023-05-22T07:12:34.863Z,3.67
2023-05-22T07:17:42.222Z,3.10
2023-05-22T07:22:48.456Z,3.00
2023-05-22T07:27:55.635Z,3.10
2023-05-22T07:33:01.914Z,3.10
2023-05-22T07:38:08.452Z,3.23
2023-05-22T07:43:15.914Z,3.17
2023-05-22T07:48:21.783Z,3.33
2023-05-22T07:53:28.080Z,3.10
2023-05-22T07:58:35.365Z,2.77
2023-05-22T08:03:41.618Z,2.80
2023-05-22T08:08:47.410Z,2.60
2023-05-22T08:13:52.979Z,3.87
2023-05-22T08:18:58.590Z,2.70
2023-05-22T08:24:04.433Z,2.57
2023-05-22T08:29:10.297Z,2.33
2023-05-22T08:34:15.953Z,2.53
2023-05-22T08:39:22.151Z,2.70
2023-05-22T08:44:28.113Z,2.50
2023-05-22T08:49:34.469Z,2.47
2023-05-22T08:54:44.277Z,2.23
2023-05-22T08:59:50.641Z,2.70
2023-05-22T09:04:57.429Z,2.73
2023-05-22T09:10:04.714Z,2.63
2023-05-22T09:15:12.373Z,2.67
2023-05-22T09:20:18.327Z,2.63
2023-05-22T09:25:23.946Z,2.37
2023-05-22T09:30:29.661Z,3.10
2023-05-22T09:35:39.677Z,2.33
2023-05-22T09:40:45.394Z,2.60
2023-05-22T09:45:52.884Z,2.60
2023-05-22T09:51:01.347Z,2.50
2023-05-22T09:56:10.194Z,2.50
2023-05-22T10:01:17.123Z,2.43
2023-05-22T10:06:24.369Z,2.70
2023-05-22T10:11:32.921Z,2.67
2023-05-22T10:16:38.761Z,2.67
2023-05-22T10:21:44.922Z,2.00
2023-05-22T10:26:51.526Z,2.43
2023-05-22T10:32:09.104Z,2.60
2023-05-22T10:37:58.805Z,2.37
2023-05-22T10:43:05.598Z,2.30
2023-05-22T10:48:13.234Z,2.50
2023-05-22T10:53:29.191Z,2.70
2023-05-22T10:58:39.455Z,2.20
2023-05-22T11:04:02.578Z,2.53
2023-05-22T11:09:46.643Z,2.40
2023-05-22T11:15:01.332Z,2.37
2023-05-22T11:20:10.438Z,2.37
2023-05-22T11:25:20.760Z,2.67
2023-05-22T11:30:31.360Z,2.60
2023-05-22T11:35:38.840Z,2.33
2023-05-22T11:40:44.510Z,2.80
2023-05-22T11:45:50.169Z,3.00
2023-05-22T11:50:55.840Z,2.70
2023-05-22T11:56:06.956Z,2.27
2023-05-22T12:01:12.554Z,2.73
2023-05-22T12:06:19.417Z,2.90
2023-05-22T12:11:28.130Z,2.53
2023-05-22T12:16:37.738Z,2.40
2023-05-22T12:21:45.107Z,2.40
2023-05-22T12:26:57.509Z,2.47
2023-05-22T12:32:08.768Z,2.37
2023-05-22T12:37:26.388Z,2.80
2023-05-22T12:42:31.925Z,2.47
2023-05-22T12:47:37.507Z,2.70
2023-05-22T12:52:43.282Z,2.60
2023-05-22T12:57:49.038Z,2.90
2023-05-22T13:02:54.881Z,2.40
2023-05-22T13:08:00.566Z,2.77
2023-05-22T13:13:06.340Z,2.30
2023-05-22T13:18:13.161Z,2.83
2023-05-22T13:23:18.717Z,2.73
2023-05-22T13:28:24.572Z,2.80
2023-05-22T13:33:30.250Z,3.20
2023-05-22T13:38:36.110Z,2.50
2023-05-22T13:43:41.799Z,2.60
2023-05-22T13:48:47.344Z,2.80
2023-05-22T13:53:54.337Z,2.33
2023-05-22T13:59:00.456Z,2.50
2023-05-22T14:04:06.596Z,2.50
2023-05-22T14:09:12.396Z,2.90
2023-05-22T14:14:20.253Z,3.10
2023-05-22T14:19:25.966Z,2.80
2023-05-22T14:24:31.828Z,2.77
2023-05-22T14:29:37.657Z,3.10
2023-05-22T14:34:43.154Z,2.73
2023-05-22T14:39:49.150Z,2.60
2023-05-22T14:44:54.801Z,2.57
2023-05-22T14:50:14.721Z,2.50
2023-05-22T14:55:08.096Z,2.53
2023-05-22T15:00:14.422Z,3.10
2023-05-22T15:05:20.184Z,2.47
2023-05-22T15:10:26.953Z,2.50
2023-05-22T15:15:32.701Z,2.73
2023-05-22T15:20:38.482Z,2.90
2023-05-22T15:25:45.053Z,2.73
2023-05-22T15:30:50.924Z,2.87
2023-05-22T15:35:56.545Z,2.70
2023-05-22T15:41:02.177Z,3.20
2023-05-22T15:46:08.701Z,2.73
2023-05-22T15:51:14.615Z,2.83
2023-05-22T15:56:20.191Z,2.92
2023-05-22T16:01:26.079Z,2.60
2023-05-22T16:06:32.843Z,2.72
2023-05-22T16:11:38.413Z,2.67
2023-05-22T16:16:44.441Z,2.93
2023-05-22T16:21:50.271Z,2.93
2023-05-22T16:26:57.107Z,2.80
2023-05-22T16:32:04.071Z,3.07
2023-05-22T16:37:09.978Z,2.53
2023-05-22T16:42:17.761Z,2.80
2023-05-22T16:47:23.826Z,2.80
2023-05-22T16:52:29.723Z,2.80
2023-05-22T16:57:35.410Z,2.60
2023-05-22T17:02:41.558Z,2.95
2023-05-22T17:07:47.228Z,3.27
2023-05-22T17:12:52.806Z,2.90
2023-05-22T17:17:58.485Z,3.40
2023-05-22T17:23:04.207Z,2.87
2023-05-22T17:28:10.360Z,3.03
2023-05-22T17:33:16.128Z,2.70
2023-05-22T17:38:22.157Z,2.70
2023-05-22T17:43:28.204Z,2.87
2023-05-22T17:48:34.794Z,3.10
2023-05-22T17:53:40.564Z,3.00
2023-05-22T17:58:46.127Z,3.33
2023-05-22T18:03:51.960Z,3.13
2023-05-22T18:08:57.659Z,2.93
2023-05-22T18:14:03.441Z,2.90
2023-05-22T18:19:09.038Z,2.50
2023-05-22T18:24:15.998Z,2.73
2023-05-22T18:29:21.655Z,2.80
2023-05-22T18:34:27.334Z,2.83
2023-05-22T18:39:32.889Z,2.80
2023-05-22T18:44:38.458Z,3.00
2023-05-22T18:49:44.253Z,2.40
2023-05-22T18:54:49.894Z,2.53
2023-05-22T18:59:55.672Z,3.70
2023-05-22T19:05:01.474Z,3.17
2023-05-22T19:10:08.483Z,2.97
2023-05-22T19:15:14.377Z,2.70
2023-05-22T19:20:20.228Z,2.67
2023-05-22T19:25:26.589Z,2.77
2023-05-22T19:30:32.248Z,3.27
2023-05-22T19:35:38.765Z,3.30
2023-05-22T19:40:44.701Z,2.73
2023-05-22T19:45:50.763Z,2.50
2023-05-22T19:50:56.646Z,2.40
2023-05-22T19:56:03.051Z,2.60
2023-05-22T20:01:08.699Z,2.77
2023-05-22T20:06:14.354Z,2.67
2023-05-22T20:11:20.051Z,3.13
2023-05-22T20:16:29.257Z,2.90
2023-05-22T20:21:34.456Z,2.77
2023-05-22T20:26:40.132Z,2.60
2023-05-22T20:31:46.917Z,3.17
2023-05-22T20:36:53.270Z,2.50
2023-05-22T20:42:00.575Z,2.70
2023-05-22T20:47:06.996Z,2.70
2023-05-22T20:52:13.666Z,3.03
2023-05-22T20:57:19.317Z,2.77
2023-05-22T21:02:25.126Z,2.60
2023-05-22T21:07:30.768Z,2.50
2023-05-22T21:12:36.537Z,2.70
2023-05-22T21:17:43.157Z,2.73
2023-05-22T21:22:49.918Z,2.63
2023-05-22T21:27:55.937Z,2.13
2023-05-22T21:33:01.589Z,2.60
2023-05-22T21:38:07.308Z,2.97
2023-05-22T21:43:12.902Z,2.50
2023-05-22T21:48:18.555Z,2.73
2023-05-22T21:53:24.236Z,2.23
2023-05-22T21:58:30.206Z,2.60
2023-05-22T22:03:35.877Z,2.67
2023-05-22T22:08:41.633Z,2.47
2023-05-22T22:13:47.189Z,2.57
2023-05-22T22:18:52.862Z,3.00
2023-05-22T22:23:58.539Z,2.53
2023-05-22T22:29:05.331Z,2.37
2023-05-22T22:34:10.885Z,2.37
2023-05-22T22:39:16.980Z,2.30
2023-05-22T22:44:22.527Z,2.17
2023-05-22T22:49:28.371Z,2.73
2023-05-22T22:54:34.094Z,2.83
2023-05-22T22:59:39.863Z,2.37
2023-05-22T23:04:45.688Z,3.10
2023-05-22T23:09:51.323Z,2.40
2023-05-22T23:14:57.052Z,2.40
2023-05-22T23:20:02.721Z,2.77
2023-05-22T23:25:09.362Z,2.83
2023-05-22T23:30:15.125Z,3.47
2023-05-22T23:35:20.744Z,3.23
2023-05-22T23:40:26.300Z,3.10
2023-05-22T23:45:40.296Z,2.60
2023-05-22T23:50:46.240Z,3.10
2023-05-22T23:55:51.898Z,3.00
